Latest Weather Observations for Campania

IDT60801

Issued at 11:02 pm EDT Sunday 4 December 2016 (issued every 30 minutes, with the page automatically refreshed every 10 minutes)

About weather observations | Map of weather stations | Latest weather observations for TAS | Other Formats
Station Details ID: 094212 Name: CAMPANIA (KINCORA) Lat: -42.69 Lon: 147.43 Height: 45.0 m
Data from the previous 72 hours. | See also: Recent months at Campania
Date/Time
EDT
Temp
°C
App
Temp
°C
Dew
Point
°C
Rel
Hum
%
Delta-T
°C
Wind Press
QNH
hPa
Press
MSL
hPa
Rain since
9am
mm
Dir  Spd
km/h
Gust
km/h
Spd
kts
Gust
kts
04/11:00pm 21.2 16.2 8.1 43 6.8 N 24 33 13 18 - - 0.0
04/10:30pm 21.3 16.7 8.2 43 6.9 N 22 30 12 16 - - 0.0
04/10:00pm 21.5 18.1 7.7 41 7.2 NNW 15 22 8 12 - - 0.0
04/09:30pm 21.5 18.1 7.7 41 7.2 N 15 30 8 16 - - 0.0
04/09:00pm 21.3 17.2 7.9 42 7.0 N 19 28 10 15 - - 0.0
04/08:30pm 20.7 16.8 8.7 46 6.3 N 19 26 10 14 - - 0.0
04/08:00pm 21.8 17.1 7.6 40 7.4 N 22 33 12 18 - - 0.0
04/07:30pm 22.0 17.8 7.4 39 7.6 N 19 26 10 14 - - 0.0
04/07:00pm 22.1 17.3 7.5 39 7.6 N 22 30 12 16 - - 0.0
04/06:30pm 22.4 16.8 7.0 37 7.9 N 26 39 14 21 - - 0.0
04/06:23pm 22.5 15.7 7.1 37 8.0 N 32 50 17 27 - - 0.0
04/06:00pm 22.6 16.5 6.8 36 8.1 N 28 39 15 21 - - 0.0
04/05:30pm 22.9 17.1 6.2 34 8.5 N 26 37 14 20 - - 0.0
04/05:00pm 23.5 16.4 6.3 33 8.8 N 33 44 18 24 - - 0.0
04/04:30pm 24.0 17.7 7.6 35 8.6 N 30 43 16 23 - - 0.0
04/04:00pm 24.1 17.7 8.5 37 8.4 N 32 44 17 24 - - 0.0
04/03:30pm 24.7 18.1 7.8 34 9.0 N 32 43 17 23 - - 0.0
04/03:19pm 24.5 18.2 7.2 33 9.1 NNE 30 50 16 27 - - 0.0
04/03:00pm 24.8 19.1 8.3 35 8.8 N 28 41 15 22 - - 0.0
04/02:30pm 24.4 17.9 6.6 32 9.2 N 30 39 16 21 - - 0.0
04/02:00pm 23.8 17.7 6.6 33 8.9 N 28 35 15 19 - - 0.0
04/01:30pm 23.1 17.7 6.4 34 8.6 N 24 33 13 18 - - 0.0
04/01:00pm 22.8 17.6 5.7 33 8.6 N 22 35 12 19 - - 0.0
04/12:30pm 22.4 17.2 7.4 38 7.8 N 24 37 13 20 - - 0.0
04/12:00pm 21.6 17.2 7.4 40 7.3 N 20 32 11 17 - - 0.0
04/11:30am 20.4 16.2 7.4 43 6.7 N 19 28 10 15 - - 0.0
04/11:00am 20.1 16.5 9.7 51 5.6 NNE 19 26 10 14 - - 0.0
04/10:30am 18.9 15.4 8.6 51 5.4 N 17 24 9 13 - - 0.0
04/10:00am 18.0 14.2 9.1 56 4.6 N 19 20 10 11 - - 0.0
04/09:30am 16.8 15.3 9.2 61 3.9 WNW 7 17 4 9 - - 0.0
04/09:00am 15.3 13.9 8.8 65 3.3 NW 6 11 3 6 - - 0.0
04/08:30am 14.5 13.4 9.9 74 2.4 S 6 9 3 5 - - 0.0
04/08:00am 12.7 12.2 9.2 79 1.8 NNW 2 6 1 3 - - 0.0
04/07:30am 10.9 9.3 8.7 86 1.1 NE 7 11 4 6 - - 0.0
04/07:00am 9.1 7.4 8.3 95 0.4 N 7 11 4 6 - - 0.0
04/06:30am 7.3 4.1 6.9 97 0.2 NNE 13 15 7 8 - - 0.0
04/06:00am 5.8 2.7 5.5 98 0.1 N 11 13 6 7 - - 0.0
04/05:30am 4.9 2.0 4.5 97 0.2 N 9 11 5 6 - - 0.0
04/05:00am 5.4 2.2 5.0 97 0.2 N 11 13 6 7 - - 0.0
04/04:30am 5.2 1.6 4.8 97 0.2 N 13 15 7 8 - - 0.0
04/04:00am 5.2 2.3 4.8 97 0.2 N 9 9 5 5 - - 0.0
04/03:30am 5.1 2.6 4.5 96 0.3 N 7 9 4 5 - - 0.0
04/03:00am 5.2 2.8 4.5 95 0.3 N 6 9 3 5 - - 0.0
04/02:30am 5.9 3.5 5.2 95 0.3 N 7 9 4 5 - - 0.0
04/02:00am 6.9 4.7 6.2 95 0.3 N 7 11 4 6 - - 0.0
04/01:30am 7.0 4.4 5.9 93 0.5 N 9 13 5 7 - - 0.0
04/01:00am 7.5 5.0 6.4 93 0.5 N 9 11 5 6 - - 0.0
04/12:30am 8.1 5.7 7.0 93 0.5 N 9 13 5 7 - - 0.0
04/12:00am 7.7 6.9 6.6 93 0.5 CALM 0 0 0 0 - - 0.0
 
Date/Time
EDT
Temp
°C
App
Temp
°C
Dew
Point
°C
Rel
Hum
%
Delta-T
°C
Wind Press
QNH
hPa
Press
MSL
hPa
Rain since
9am
mm
Dir  Spd
km/h
Gust
km/h
Spd
kts
Gust
kts
03/11:30pm 8.6 7.3 7.5 93 0.5 N 4 9 2 5 - - 0.0
03/11:00pm 9.2 8.6 7.6 90 0.8 CALM 0 0 0 0 - - 0.0
03/10:30pm 10.7 10.4 8.6 87 1.0 CALM 0 0 0 0 - - 0.0
03/10:00pm 12.5 11.2 9.3 81 1.6 SE 6 7 3 4 - - 0.0
03/09:30pm 13.0 12.9 9.4 79 1.8 CALM 0 0 0 0 - - 0.0
03/09:00pm 13.0 11.5 9.1 77 2.0 SSW 7 9 4 5 - - 0.0
03/08:30pm 14.0 12.6 9.0 72 2.5 ENE 6 9 3 5 - - 0.0
03/08:00pm 14.3 11.3 9.3 72 2.6 SSW 15 20 8 11 - - 0.0
03/07:30pm 15.1 13.4 7.4 60 3.8 NNE 6 11 3 6 - - 0.0
03/07:00pm 16.3 14.0 7.5 56 4.4 ENE 9 15 5 8 - - 0.0
03/06:30pm 16.8 13.7 7.4 54 4.7 NE 13 17 7 9 - - 0.0
03/06:00pm 17.0 14.0 7.6 54 4.7 ENE 13 17 7 9 - - 0.0
03/05:30pm 18.2 15.4 8.5 53 5.0 ENE 13 19 7 10 - - 0.0
03/05:00pm 17.6 14.5 8.7 56 4.6 E 15 20 8 11 - - 0.0
03/04:30pm 17.5 14.3 8.6 56 4.6 NE 15 20 8 11 - - 0.0
03/04:00pm 17.6 14.5 7.4 51 5.1 E 13 20 7 11 - - 0.0
03/03:30pm 18.6 15.7 4.4 39 6.8 NNE 9 19 5 10 - - 0.0
03/03:00pm 19.4 16.0 4.0 36 7.3 WNW 11 17 6 9 - - 0.0
03/02:30pm 19.1 15.6 5.6 41 6.6 WSW 13 20 7 11 - - 0.0
03/02:00pm 19.2 15.7 5.3 40 6.8 WSW 13 22 7 12 - - 0.0
03/01:30pm 19.1 15.7 5.9 42 6.5 W 13 20 7 11 - - 0.0
03/01:00pm 17.5 14.7 5.1 44 6.0 NW 9 20 5 11 - - 0.0
03/12:30pm 17.6 15.0 6.2 47 5.6 NW 9 20 5 11 - - 0.0
03/12:00pm 17.2 13.8 6.1 48 5.4 NW 13 22 7 12 - - 0.0
03/11:30am 16.6 12.7 5.3 47 5.4 NNW 15 24 8 13 - - 0.0
03/11:00am 16.1 13.0 5.4 49 5.1 WSW 11 19 6 10 - - 0.0
03/10:30am 15.0 10.8 5.5 53 4.5 WSW 17 22 9 12 - - 0.0
03/10:00am 16.3 12.8 5.6 49 5.2 WNW 13 20 7 11 - - 0.0
03/09:30am 14.8 11.0 5.9 55 4.3 W 15 20 8 11 - - 0.0
03/09:00am 14.6 10.0 5.7 55 4.2 W 19 28 10 15 - - 0.2
03/08:30am 13.5 10.4 5.7 59 3.7 WNW 11 17 6 9 - - 0.2
03/08:00am 12.0 9.9 5.9 66 2.9 NE 6 9 3 5 - - 0.2
03/07:30am 10.9 8.6 5.7 70 2.4 NNE 7 11 4 6 - - 0.2
03/07:00am 10.1 7.8 5.9 75 1.9 NE 7 11 4 6 - - 0.2
03/06:30am 8.0 5.7 5.5 84 1.1 NNW 7 9 4 5 - - 0.2
03/06:00am 5.9 3.3 4.1 88 0.8 ESE 7 11 4 6 - - 0.2
03/05:30am 7.0 4.4 4.3 83 1.2 N 7 9 4 5 - - 0.2
03/05:00am 6.8 4.3 4.5 85 1.0 NNW 7 9 4 5 - - 0.2
03/04:30am 6.8 4.2 4.1 83 1.2 N 7 9 4 5 - - 0.2
03/04:00am 7.2 4.2 4.0 80 1.4 NW 9 17 5 9 - - 0.2
03/03:30am 8.9 6.3 4.1 72 2.1 N 7 11 4 6 - - 0.2
03/03:00am 9.9 6.3 3.2 63 2.9 W 11 13 6 7 - - 0.2
03/02:30am 10.1 7.3 3.4 63 2.9 W 7 9 4 5 - - 0.2
03/02:00am 9.9 8.6 3.9 66 2.6 CALM 0 6 0 3 - - 0.2
03/01:30am 10.4 8.0 2.3 57 3.5 NNW 4 9 2 5 - - 0.2
03/01:00am 11.1 7.4 2.2 54 3.8 N 11 15 6 8 - - 0.2
03/12:30am 11.1 6.5 1.6 52 4.0 N 15 24 8 13 - - 0.2
03/12:00am 10.7 5.4 2.0 55 3.7 N 19 24 10 13 - - 0.2
 
Date/Time
EDT
Temp
°C
App
Temp
°C
Dew
Point
°C
Rel
Hum
%
Delta-T
°C
Wind Press
QNH
hPa
Press
MSL
hPa
Rain since
9am
mm
Dir  Spd
km/h
Gust
km/h
Spd
kts
Gust
kts
02/11:30pm 10.8 6.4 2.9 58 3.4 N 15 20 8 11 - - 0.2
02/11:00pm 10.2 6.5 2.6 59 3.3 N 11 17 6 9 - - 0.2
02/10:30pm 11.9 7.6 1.3 48 4.5 N 13 24 7 13 - - 0.2
02/10:00pm 11.3 7.1 1.5 51 4.1 NNW 13 20 7 11 - - 0.2
02/09:30pm 11.6 8.0 2.9 55 3.8 NW 11 15 6 8 - - 0.2
02/09:00pm 12.7 8.4 3.1 52 4.3 WNW 15 20 8 11 - - 0.2
02/08:30pm 13.5 9.2 3.0 49 4.7 W 15 24 8 13 - - 0.2
02/08:00pm 14.2 10.2 3.1 47 5.0 WNW 13 26 7 14 - - 0.2
02/07:30pm 15.2 10.0 2.4 42 5.7 NW 19 30 10 16 - - 0.2
02/07:00pm 16.0 11.1 1.7 38 6.3 WNW 17 30 9 16 - - 0.2
02/06:30pm 17.1 11.6 0.7 33 7.2 WNW 19 28 10 15 - - 0.2
02/06:00pm 17.5 12.1 2.7 37 6.8 WNW 20 32 11 17 - - 0.2
02/05:30pm 19.0 13.1 1.5 31 7.9 NW 22 32 12 17 - - 0.2
02/05:00pm 18.5 12.3 1.9 33 7.5 W 24 33 13 18 - - 0.2
02/04:30pm 17.5 11.3 1.9 35 7.0 WNW 24 35 13 19 - - 0.2
02/04:00pm 17.8 12.2 3.3 38 6.7 W 22 35 12 19 - - 0.2
02/03:30pm 17.8 12.2 3.3 38 6.7 WNW 22 35 12 19 - - 0.2
02/03:00pm 18.6 13.3 2.9 35 7.3 NW 20 33 11 18 - - 0.2
02/02:30pm 19.5 13.8 2.8 33 7.8 W 22 35 12 19 - - 0.2
02/02:00pm 19.1 13.1 3.3 35 7.4 WNW 24 35 13 19 - - 0.2
02/01:30pm 18.6 13.4 3.6 37 7.1 W 20 30 11 16 - - 0.2
02/01:00pm 18.8 14.5 5.3 41 6.6 W 17 24 9 13 - - 0.2
02/12:30pm 16.7 10.7 5.3 47 5.5 SW 26 35 14 19 - - 0.2
02/12:00pm 18.6 13.9 6.1 44 6.2 W 20 32 11 17 - - 0.2
02/11:30am 17.1 11.7 8.0 55 4.6 WSW 26 39 14 21 - - 0.2
02/11:00am 17.2 12.7 8.4 56 4.5 W 22 30 12 16 - - 0.2
02/10:30am 14.8 10.9 8.7 67 3.1 WSW 19 32 10 17 - - 0.2
02/10:00am 13.9 10.6 9.7 76 2.2 SW 17 30 9 16 - - 0.0
02/09:30am 13.9 8.7 8.9 72 2.5 SW 26 37 14 20 - - 0.0
02/09:00am 16.6 12.2 7.5 55 4.6 WNW 20 39 11 21 - - 0.0
02/08:30am 17.1 13.3 7.5 53 4.8 NW 17 26 9 14 - - 0.0
02/08:00am 16.3 13.2 7.3 55 4.5 NNW 13 20 7 11 - - 0.0
02/07:30am 15.5 11.3 7.5 59 4.0 NNW 19 28 10 15 - - 0.0
02/07:00am 14.7 12.0 7.3 61 3.6 N 11 20 6 11 - - 0.0
02/06:30am 13.5 10.4 7.1 65 3.1 NNW 13 20 7 11 - - 0.0
02/06:00am 11.2 8.5 7.3 77 1.9 NW 11 19 6 10 - - 0.0
02/05:30am 12.7 8.8 7.2 69 2.7 WNW 17 26 9 14 - - 0.0
02/05:00am 11.3 8.9 8.5 83 1.4 NW 11 15 6 8 - - 0.0
02/04:30am 12.9 10.0 9.5 80 1.7 NW 15 20 8 11 - - 0.0
02/04:00am 11.7 10.7 10.9 95 0.4 NNW 7 15 4 8 - - 0.0
02/03:30am 13.2 12.7 12.6 96 0.3 N 7 9 4 5 - - 0.0
02/03:00am 13.7 13.5 13.1 96 0.3 SW 6 9 3 5 - - 0.0
02/02:30am 13.6 13.2 13.0 96 0.3 SSE 7 9 4 5 - - 0.0
02/02:00am 13.9 13.2 13.3 96 0.3 SE 9 13 5 7 - - 0.0
02/01:30am 14.0 13.8 13.5 97 0.3 SSW 7 11 4 6 - - 0.0
02/01:00am 13.8 13.5 13.2 96 0.3 NNE 7 11 4 6 - - 0.0
02/12:30am 14.6 15.1 14.1 97 0.3 NW 4 7 2 4 - - 0.0
02/12:00am 13.2 14.0 12.6 96 0.3 CALM 0 0 0 0 - - 0.0
 
Date/Time
EDT
Temp
°C
App
Temp
°C
Dew
Point
°C
Rel
Hum
%
Delta-T
°C
Wind Press
QNH
hPa
Press
MSL
hPa
Rain since
9am
mm
Dir  Spd
km/h
Gust
km/h
Spd
kts
Gust
kts
01/11:30pm 13.2 13.2 12.4 95 0.4 N 4 9 2 5 - - 0.0

Other Formats:

Comma delimited format used in spreadsheet applications
http://www.bom.gov.au/fwo/IDT60801/IDT60801.95972.axf

JavaScript Object Notation format (JSON) in row-major order
http://www.bom.gov.au/fwo/IDT60801/IDT60801.95972.json